sensor_id;sensor_type;location;lat;lon;timestamp;P1;durP1;ratioP1;P2;durP2;ratioP2
66112;SDS011;52893;52.870;5.822;2024-03-06T00:00:39;19.30;;;6.75;;
66112;SDS011;52893;52.870;5.822;2024-03-06T00:03:07;13.80;;;6.40;;
66112;SDS011;52893;52.870;5.822;2024-03-06T00:05:34;16.25;;;5.75;;
66112;SDS011;52893;52.870;5.822;2024-03-06T00:08:02;10.77;;;5.63;;
66112;SDS011;52893;52.870;5.822;2024-03-06T00:10:29;14.30;;;6.07;;
66112;SDS011;52893;52.870;5.822;2024-03-06T00:12:56;18.88;;;6.63;;
66112;SDS011;52893;52.870;5.822;2024-03-06T00:15:24;11.30;;;5.07;;
66112;SDS011;52893;52.870;5.822;2024-03-06T00:17:54;8.38;;;3.30;;
66112;SDS011;52893;52.870;5.822;2024-03-06T00:20:22;10.10;;;4.65;;
66112;SDS011;52893;52.870;5.822;2024-03-06T00:22:49;14.32;;;5.53;;
66112;SDS011;52893;52.870;5.822;2024-03-06T00:25:17;14.63;;;6.05;;
66112;SDS011;52893;52.870;5.822;2024-03-06T00:27:45;17.80;;;5.88;;
66112;SDS011;52893;52.870;5.822;2024-03-06T00:30:12;14.80;;;6.38;;
66112;SDS011;52893;52.870;5.822;2024-03-06T00:32:40;14.93;;;6.50;;
66112;SDS011;52893;52.870;5.822;2024-03-06T00:35:09;9.85;;;4.35;;
66112;SDS011;52893;52.870;5.822;2024-03-06T00:37:37;12.93;;;5.07;;
66112;SDS011;52893;52.870;5.822;2024-03-06T00:40:05;18.83;;;6.88;;
66112;SDS011;52893;52.870;5.822;2024-03-06T00:42:33;9.85;;;4.70;;
66112;SDS011;52893;52.870;5.822;2024-03-06T00:45:01;14.13;;;6.00;;
66112;SDS011;52893;52.870;5.822;2024-03-06T00:47:29;19.52;;;7.50;;
66112;SDS011;52893;52.870;5.822;2024-03-06T00:49:56;14.98;;;5.63;;
66112;SDS011;52893;52.870;5.822;2024-03-06T00:52:25;8.18;;;2.95;;
66112;SDS011;52893;52.870;5.822;2024-03-06T00:54:53;14.60;;;6.00;;
66112;SDS011;52893;52.870;5.822;2024-03-06T00:57:20;15.82;;;5.55;;
66112;SDS011;52893;52.870;5.822;2024-03-06T00:59:47;15.88;;;6.68;;
66112;SDS011;52893;52.870;5.822;2024-03-06T01:02:15;13.35;;;5.63;;
66112;SDS011;52893;52.870;5.822;2024-03-06T01:04:42;7.65;;;4.18;;
66112;SDS011;52893;52.870;5.822;2024-03-06T01:07:09;7.50;;;2.97;;
66112;SDS011;52893;52.870;5.822;2024-03-06T01:09:38;7.10;;;4.15;;
66112;SDS011;52893;52.870;5.822;2024-03-06T01:12:05;9.82;;;4.82;;
66112;SDS011;52893;52.870;5.822;2024-03-06T01:14:32;11.68;;;6.03;;
66112;SDS011;52893;52.870;5.822;2024-03-06T01:17:01;17.40;;;5.75;;
66112;SDS011;52893;52.870;5.822;2024-03-06T01:19:28;11.68;;;4.97;;
66112;SDS011;52893;52.870;5.822;2024-03-06T01:21:56;11.77;;;5.90;;
66112;SDS011;52893;52.870;5.822;2024-03-06T01:24:23;8.02;;;3.85;;
66112;SDS011;52893;52.870;5.822;2024-03-06T01:26:52;10.20;;;4.65;;
66112;SDS011;52893;52.870;5.822;2024-03-06T01:29:19;11.27;;;5.03;;
66112;SDS011;52893;52.870;5.822;2024-03-06T01:31:47;13.15;;;4.07;;
66112;SDS011;52893;52.870;5.822;2024-03-06T01:34:14;6.85;;;2.95;;
66112;SDS011;52893;52.870;5.822;2024-03-06T01:36:42;6.88;;;3.42;;
66112;SDS011;52893;52.870;5.822;2024-03-06T01:39:09;5.43;;;2.78;;
66112;SDS011;52893;52.870;5.822;2024-03-06T01:41:37;5.93;;;2.28;;
66112;SDS011;52893;52.870;5.822;2024-03-06T01:44:06;13.38;;;5.40;;
66112;SDS011;52893;52.870;5.822;2024-03-06T01:46:33;10.77;;;4.07;;
66112;SDS011;52893;52.870;5.822;2024-03-06T01:49:00;12.32;;;4.10;;
66112;SDS011;52893;52.870;5.822;2024-03-06T01:51:28;9.18;;;3.90;;
66112;SDS011;52893;52.870;5.822;2024-03-06T01:53:55;9.70;;;3.08;;
66112;SDS011;52893;52.870;5.822;2024-03-06T01:56:22;12.70;;;3.45;;
66112;SDS011;52893;52.870;5.822;2024-03-06T01:58:49;12.77;;;4.22;;
66112;SDS011;52893;52.870;5.822;2024-03-06T02:01:19;10.13;;;3.92;;
66112;SDS011;52893;52.870;5.822;2024-03-06T02:03:48;8.10;;;2.97;;
66112;SDS011;52893;52.870;5.822;2024-03-06T02:06:15;9.98;;;3.83;;
66112;SDS011;52893;52.870;5.822;2024-03-06T02:08:45;27.05;;;4.47;;
66112;SDS011;52893;52.870;5.822;2024-03-06T02:11:12;8.05;;;3.42;;
66112;SDS011;52893;52.870;5.822;2024-03-06T02:13:42;8.27;;;3.75;;
66112;SDS011;52893;52.870;5.822;2024-03-06T02:16:10;10.45;;;4.32;;
66112;SDS011;52893;52.870;5.822;2024-03-06T02:18:49;12.02;;;4.53;;
66112;SDS011;52893;52.870;5.822;2024-03-06T02:21:19;10.32;;;4.55;;
66112;SDS011;52893;52.870;5.822;2024-03-06T02:23:47;10.38;;;4.55;;
66112;SDS011;52893;52.870;5.822;2024-03-06T02:26:15;8.10;;;2.85;;
66112;SDS011;52893;52.870;5.822;2024-03-06T02:28:46;9.07;;;3.80;;
66112;SDS011;52893;52.870;5.822;2024-03-06T02:31:15;13.75;;;3.67;;
66112;SDS011;52893;52.870;5.822;2024-03-06T02:33:43;9.73;;;4.00;;
66112;SDS011;52893;52.870;5.822;2024-03-06T02:36:10;8.23;;;4.07;;
66112;SDS011;52893;52.870;5.822;2024-03-06T02:38:39;8.38;;;4.40;;
66112;SDS011;52893;52.870;5.822;2024-03-06T02:41:07;8.07;;;3.67;;
66112;SDS011;52893;52.870;5.822;2024-03-06T02:43:34;8.65;;;4.32;;
66112;SDS011;52893;52.870;5.822;2024-03-06T02:46:02;6.50;;;3.00;;
66112;SDS011;52893;52.870;5.822;2024-03-06T02:48:30;7.20;;;2.83;;
66112;SDS011;52893;52.870;5.822;2024-03-06T02:50:58;8.00;;;3.05;;
66112;SDS011;52893;52.870;5.822;2024-03-06T02:53:25;6.82;;;2.67;;
66112;SDS011;52893;52.870;5.822;2024-03-06T02:55:54;8.93;;;3.33;;
66112;SDS011;52893;52.870;5.822;2024-03-06T02:58:22;11.65;;;3.40;;
66112;SDS011;52893;52.870;5.822;2024-03-06T03:00:49;9.98;;;3.05;;
66112;SDS011;52893;52.870;5.822;2024-03-06T03:03:16;9.90;;;2.80;;
66112;SDS011;52893;52.870;5.822;2024-03-06T03:05:44;7.70;;;3.50;;
66112;SDS011;52893;52.870;5.822;2024-03-06T03:08:12;6.72;;;3.40;;
66112;SDS011;52893;52.870;5.822;2024-03-06T03:10:39;6.15;;;2.47;;
66112;SDS011;52893;52.870;5.822;2024-03-06T03:13:08;10.18;;;3.25;;
66112;SDS011;52893;52.870;5.822;2024-03-06T03:15:35;11.80;;;3.97;;
66112;SDS011;52893;52.870;5.822;2024-03-06T03:18:02;8.50;;;3.45;;
66112;SDS011;52893;52.870;5.822;2024-03-06T03:20:30;14.85;;;4.38;;
66112;SDS011;52893;52.870;5.822;2024-03-06T03:22:57;12.80;;;5.43;;
66112;SDS011;52893;52.870;5.822;2024-03-06T03:25:25;7.88;;;3.80;;
66112;SDS011;52893;52.870;5.822;2024-03-06T03:27:52;5.30;;;2.95;;
66112;SDS011;52893;52.870;5.822;2024-03-06T03:30:21;8.98;;;2.47;;
66112;SDS011;52893;52.870;5.822;2024-03-06T03:32:49;10.52;;;4.40;;
66112;SDS011;52893;52.870;5.822;2024-03-06T03:35:16;8.10;;;3.78;;
66112;SDS011;52893;52.870;5.822;2024-03-06T03:37:46;6.78;;;2.85;;
66112;SDS011;52893;52.870;5.822;2024-03-06T03:40:14;9.93;;;3.90;;
66112;SDS011;52893;52.870;5.822;2024-03-06T03:42:43;12.32;;;3.17;;
66112;SDS011;52893;52.870;5.822;2024-03-06T03:45:10;9.35;;;4.28;;
66112;SDS011;52893;52.870;5.822;2024-03-06T03:47:39;13.25;;;4.20;;
66112;SDS011;52893;52.870;5.822;2024-03-06T03:50:08;9.40;;;3.88;;
66112;SDS011;52893;52.870;5.822;2024-03-06T03:52:36;15.43;;;4.75;;
66112;SDS011;52893;52.870;5.822;2024-03-06T03:55:07;7.78;;;3.20;;
66112;SDS011;52893;52.870;5.822;2024-03-06T03:57:35;5.43;;;2.70;;
66112;SDS011;52893;52.870;5.822;2024-03-06T04:00:02;10.15;;;3.70;;
66112;SDS011;52893;52.870;5.822;2024-03-06T04:02:38;7.10;;;3.08;;
66112;SDS011;52893;52.870;5.822;2024-03-06T04:05:07;12.93;;;3.55;;
66112;SDS011;52893;52.870;5.822;2024-03-06T04:07:35;12.13;;;3.60;;
66112;SDS011;52893;52.870;5.822;2024-03-06T04:10:03;8.32;;;4.07;;
66112;SDS011;52893;52.870;5.822;2024-03-06T04:12:31;4.78;;;2.38;;
66112;SDS011;52893;52.870;5.822;2024-03-06T04:14:58;10.05;;;3.35;;
66112;SDS011;52893;52.870;5.822;2024-03-06T04:17:25;5.97;;;3.17;;
66112;SDS011;52893;52.870;5.822;2024-03-06T04:19:54;7.78;;;3.28;;
66112;SDS011;52893;52.870;5.822;2024-03-06T04:22:22;6.72;;;3.03;;
66112;SDS011;52893;52.870;5.822;2024-03-06T04:24:49;6.85;;;2.83;;
66112;SDS011;52893;52.870;5.822;2024-03-06T04:27:16;8.45;;;3.67;;
66112;SDS011;52893;52.870;5.822;2024-03-06T04:29:44;13.10;;;4.18;;
66112;SDS011;52893;52.870;5.822;2024-03-06T04:32:11;9.00;;;3.67;;
66112;SDS011;52893;52.870;5.822;2024-03-06T04:34:38;9.18;;;2.97;;
66112;SDS011;52893;52.870;5.822;2024-03-06T04:37:07;7.40;;;3.50;;
66112;SDS011;52893;52.870;5.822;2024-03-06T04:39:34;10.65;;;3.53;;
66112;SDS011;52893;52.870;5.822;2024-03-06T04:42:02;6.25;;;2.03;;
66112;SDS011;52893;52.870;5.822;2024-03-06T04:44:33;4.78;;;2.90;;
66112;SDS011;52893;52.870;5.822;2024-03-06T04:47:00;7.53;;;3.60;;
66112;SDS011;52893;52.870;5.822;2024-03-06T04:49:28;3.00;;;1.65;;
66112;SDS011;52893;52.870;5.822;2024-03-06T04:51:59;9.68;;;3.25;;
66112;SDS011;52893;52.870;5.822;2024-03-06T04:54:27;12.20;;;3.83;;
66112;SDS011;52893;52.870;5.822;2024-03-06T04:56:55;8.93;;;3.15;;
66112;SDS011;52893;52.870;5.822;2024-03-06T04:59:22;6.55;;;3.08;;
66112;SDS011;52893;52.870;5.822;2024-03-06T05:01:50;9.82;;;3.65;;
66112;SDS011;52893;52.870;5.822;2024-03-06T05:04:17;11.00;;;3.30;;
66112;SDS011;52893;52.870;5.822;2024-03-06T05:06:45;8.05;;;3.33;;
66112;SDS011;52893;52.870;5.822;2024-03-06T05:09:13;12.05;;;3.42;;
66112;SDS011;52893;52.870;5.822;2024-03-06T05:11:42;6.97;;;3.80;;
66112;SDS011;52893;52.870;5.822;2024-03-06T05:14:10;8.02;;;3.30;;
66112;SDS011;52893;52.870;5.822;2024-03-06T05:16:37;6.38;;;3.03;;
66112;SDS011;52893;52.870;5.822;2024-03-06T05:19:07;6.07;;;3.42;;
66112;SDS011;52893;52.870;5.822;2024-03-06T05:21:36;4.70;;;2.50;;
66112;SDS011;52893;52.870;5.822;2024-03-06T05:24:04;16.88;;;4.00;;
66112;SDS011;52893;52.870;5.822;2024-03-06T05:26:31;7.72;;;4.10;;
66112;SDS011;52893;52.870;5.822;2024-03-06T05:29:01;10.05;;;4.03;;
66112;SDS011;52893;52.870;5.822;2024-03-06T05:31:28;8.50;;;4.07;;
66112;SDS011;52893;52.870;5.822;2024-03-06T05:33:56;3.30;;;1.98;;
66112;SDS011;52893;52.870;5.822;2024-03-06T05:36:23;15.60;;;4.10;;
66112;SDS011;52893;52.870;5.822;2024-03-06T05:38:51;18.15;;;4.35;;
66112;SDS011;52893;52.870;5.822;2024-03-06T05:41:18;9.23;;;3.08;;
66112;SDS011;52893;52.870;5.822;2024-03-06T05:43:45;6.68;;;2.33;;
66112;SDS011;52893;52.870;5.822;2024-03-06T05:46:15;7.50;;;3.53;;
66112;SDS011;52893;52.870;5.822;2024-03-06T05:48:42;7.18;;;2.88;;
66112;SDS011;52893;52.870;5.822;2024-03-06T05:51:10;5.95;;;3.00;;
66112;SDS011;52893;52.870;5.822;2024-03-06T05:53:37;6.95;;;3.03;;
66112;SDS011;52893;52.870;5.822;2024-03-06T05:56:06;8.70;;;3.35;;
66112;SDS011;52893;52.870;5.822;2024-03-06T05:58:33;8.13;;;3.05;;
66112;SDS011;52893;52.870;5.822;2024-03-06T06:01:01;11.02;;;3.38;;
66112;SDS011;52893;52.870;5.822;2024-03-06T06:03:35;3.28;;;1.77;;
66112;SDS011;52893;52.870;5.822;2024-03-06T06:06:04;5.43;;;3.13;;
66112;SDS011;52893;52.870;5.822;2024-03-06T06:08:32;7.40;;;3.40;;
66112;SDS011;52893;52.870;5.822;2024-03-06T06:11:02;8.15;;;2.90;;
66112;SDS011;52893;52.870;5.822;2024-03-06T06:13:32;9.23;;;3.30;;
66112;SDS011;52893;52.870;5.822;2024-03-06T06:16:00;7.65;;;3.22;;
66112;SDS011;52893;52.870;5.822;2024-03-06T06:18:33;6.82;;;3.17;;
66112;SDS011;52893;52.870;5.822;2024-03-06T06:21:02;11.95;;;3.50;;
66112;SDS011;52893;52.870;5.822;2024-03-06T06:23:33;8.20;;;2.85;;
66112;SDS011;52893;52.870;5.822;2024-03-06T06:26:00;11.50;;;3.83;;
66112;SDS011;52893;52.870;5.822;2024-03-06T06:28:27;5.35;;;2.60;;
66112;SDS011;52893;52.870;5.822;2024-03-06T06:30:55;8.23;;;2.95;;
66112;SDS011;52893;52.870;5.822;2024-03-06T06:33:22;10.05;;;3.17;;
66112;SDS011;52893;52.870;5.822;2024-03-06T06:35:51;12.35;;;4.28;;
66112;SDS011;52893;52.870;5.822;2024-03-06T06:38:19;9.18;;;3.28;;
66112;SDS011;52893;52.870;5.822;2024-03-06T06:40:47;8.40;;;3.38;;
66112;SDS011;52893;52.870;5.822;2024-03-06T06:43:14;13.60;;;3.30;;
66112;SDS011;52893;52.870;5.822;2024-03-06T06:45:42;5.43;;;2.38;;
66112;SDS011;52893;52.870;5.822;2024-03-06T06:48:09;3.95;;;2.17;;
66112;SDS011;52893;52.870;5.822;2024-03-06T06:50:37;7.43;;;3.50;;
66112;SDS011;52893;52.870;5.822;2024-03-06T06:53:06;8.82;;;3.72;;
66112;SDS011;52893;52.870;5.822;2024-03-06T06:55:33;12.48;;;4.25;;
66112;SDS011;52893;52.870;5.822;2024-03-06T06:58:02;5.65;;;2.65;;
66112;SDS011;52893;52.870;5.822;2024-03-06T07:00:29;7.45;;;3.63;;
66112;SDS011;52893;52.870;5.822;2024-03-06T07:02:57;12.25;;;3.47;;
66112;SDS011;52893;52.870;5.822;2024-03-06T07:05:25;9.43;;;3.20;;
66112;SDS011;52893;52.870;5.822;2024-03-06T07:07:53;10.45;;;3.58;;
66112;SDS011;52893;52.870;5.822;2024-03-06T07:10:22;6.60;;;3.30;;
66112;SDS011;52893;52.870;5.822;2024-03-06T07:12:50;8.70;;;3.80;;
66112;SDS011;52893;52.870;5.822;2024-03-06T07:15:18;6.88;;;3.15;;
66112;SDS011;52893;52.870;5.822;2024-03-06T07:17:45;8.05;;;3.45;;
66112;SDS011;52893;52.870;5.822;2024-03-06T07:20:12;8.38;;;3.80;;
66112;SDS011;52893;52.870;5.822;2024-03-06T07:22:40;13.18;;;4.55;;
66112;SDS011;52893;52.870;5.822;2024-03-06T07:25:08;6.85;;;3.65;;
66112;SDS011;52893;52.870;5.822;2024-03-06T07:27:37;8.38;;;3.40;;
66112;SDS011;52893;52.870;5.822;2024-03-06T07:30:05;10.25;;;2.92;;
66112;SDS011;52893;52.870;5.822;2024-03-06T07:32:34;8.35;;;3.55;;
66112;SDS011;52893;52.870;5.822;2024-03-06T07:35:01;13.63;;;4.88;;
66112;SDS011;52893;52.870;5.822;2024-03-06T07:37:29;15.27;;;5.20;;
66112;SDS011;52893;52.870;5.822;2024-03-06T07:39:56;5.68;;;3.22;;
66112;SDS011;52893;52.870;5.822;2024-03-06T07:42:24;14.27;;;4.10;;
66112;SDS011;52893;52.870;5.822;2024-03-06T07:44:53;23.88;;;5.85;;
66112;SDS011;52893;52.870;5.822;2024-03-06T07:47:20;6.82;;;2.67;;
66112;SDS011;52893;52.870;5.822;2024-03-06T07:49:48;9.07;;;4.03;;
66112;SDS011;52893;52.870;5.822;2024-03-06T07:52:16;10.63;;;4.45;;
66112;SDS011;52893;52.870;5.822;2024-03-06T07:54:43;6.80;;;2.75;;
66112;SDS011;52893;52.870;5.822;2024-03-06T07:57:11;15.35;;;4.38;;
66112;SDS011;52893;52.870;5.822;2024-03-06T07:59:38;12.40;;;3.92;;
66112;SDS011;52893;52.870;5.822;2024-03-06T08:02:07;7.70;;;3.53;;
66112;SDS011;52893;52.870;5.822;2024-03-06T08:04:34;6.57;;;2.53;;
66112;SDS011;52893;52.870;5.822;2024-03-06T08:07:02;6.70;;;3.40;;
66112;SDS011;52893;52.870;5.822;2024-03-06T08:09:29;16.70;;;3.75;;
66112;SDS011;52893;52.870;5.822;2024-03-06T08:11:57;11.65;;;4.15;;
66112;SDS011;52893;52.870;5.822;2024-03-06T08:14:24;11.38;;;4.20;;
66112;SDS011;52893;52.870;5.822;2024-03-06T08:16:52;13.25;;;3.92;;
66112;SDS011;52893;52.870;5.822;2024-03-06T08:19:21;16.30;;;4.50;;
66112;SDS011;52893;52.870;5.822;2024-03-06T08:21:51;15.27;;;3.78;;
66112;SDS011;52893;52.870;5.822;2024-03-06T08:24:18;15.18;;;4.35;;
66112;SDS011;52893;52.870;5.822;2024-03-06T08:26:45;9.75;;;4.90;;
66112;SDS011;52893;52.870;5.822;2024-03-06T08:29:14;8.07;;;3.38;;
66112;SDS011;52893;52.870;5.822;2024-03-06T08:31:41;5.18;;;2.50;;
66112;SDS011;52893;52.870;5.822;2024-03-06T08:34:08;8.75;;;3.40;;
66112;SDS011;52893;52.870;5.822;2024-03-06T08:36:37;9.20;;;4.07;;
66112;SDS011;52893;52.870;5.822;2024-03-06T08:39:04;5.63;;;3.53;;
66112;SDS011;52893;52.870;5.822;2024-03-06T08:41:32;4.50;;;2.97;;
66112;SDS011;52893;52.870;5.822;2024-03-06T08:44:00;7.38;;;3.00;;
66112;SDS011;52893;52.870;5.822;2024-03-06T08:46:28;25.90;;;4.40;;
66112;SDS011;52893;52.870;5.822;2024-03-06T08:48:55;10.05;;;3.35;;
66112;SDS011;52893;52.870;5.822;2024-03-06T08:51:22;6.43;;;3.05;;
66112;SDS011;52893;52.870;5.822;2024-03-06T08:53:52;13.48;;;4.75;;
66112;SDS011;52893;52.870;5.822;2024-03-06T08:56:20;10.63;;;3.72;;
66112;SDS011;52893;52.870;5.822;2024-03-06T08:58:47;13.80;;;4.88;;
66112;SDS011;52893;52.870;5.822;2024-03-06T09:01:14;12.02;;;4.50;;
66112;SDS011;52893;52.870;5.822;2024-03-06T09:03:42;13.75;;;5.07;;
66112;SDS011;52893;52.870;5.822;2024-03-06T09:06:09;12.25;;;3.97;;
66112;SDS011;52893;52.870;5.822;2024-03-06T09:08:38;11.10;;;3.58;;
66112;SDS011;52893;52.870;5.822;2024-03-06T09:11:07;17.77;;;5.60;;
66112;SDS011;52893;52.870;5.822;2024-03-06T09:13:34;6.55;;;3.08;;
66112;SDS011;52893;52.870;5.822;2024-03-06T09:16:02;15.40;;;4.22;;
66112;SDS011;52893;52.870;5.822;2024-03-06T09:18:30;10.18;;;4.40;;
66112;SDS011;52893;52.870;5.822;2024-03-06T09:20:57;11.93;;;3.97;;
66112;SDS011;52893;52.870;5.822;2024-03-06T09:23:24;11.15;;;3.88;;
66112;SDS011;52893;52.870;5.822;2024-03-06T09:25:53;10.05;;;4.35;;
66112;SDS011;52893;52.870;5.822;2024-03-06T09:28:22;15.70;;;6.13;;
66112;SDS011;52893;52.870;5.822;2024-03-06T09:30:49;19.35;;;6.63;;
66112;SDS011;52893;52.870;5.822;2024-03-06T09:33:16;19.95;;;6.63;;
66112;SDS011;52893;52.870;5.822;2024-03-06T09:35:44;13.38;;;5.78;;
66112;SDS011;52893;52.870;5.822;2024-03-06T09:38:11;13.50;;;4.75;;
66112;SDS011;52893;52.870;5.822;2024-03-06T09:40:39;17.92;;;6.50;;
66112;SDS011;52893;52.870;5.822;2024-03-06T09:43:07;16.08;;;5.65;;
66112;SDS011;52893;52.870;5.822;2024-03-06T09:45:37;26.40;;;6.25;;
66112;SDS011;52893;52.870;5.822;2024-03-06T09:48:05;24.02;;;7.30;;
66112;SDS011;52893;52.870;5.822;2024-03-06T09:50:35;14.02;;;5.25;;
66112;SDS011;52893;52.870;5.822;2024-03-06T09:53:07;16.23;;;6.70;;
66112;SDS011;52893;52.870;5.822;2024-03-06T09:55:36;20.55;;;6.63;;
66112;SDS011;52893;52.870;5.822;2024-03-06T09:58:05;15.25;;;5.50;;
66112;SDS011;52893;52.870;5.822;2024-03-06T10:00:34;31.30;;;7.80;;
66112;SDS011;52893;52.870;5.822;2024-03-06T10:03:03;21.00;;;6.22;;
66112;SDS011;52893;52.870;5.822;2024-03-06T10:05:34;14.65;;;5.15;;
66112;SDS011;52893;52.870;5.822;2024-03-06T10:08:01;26.15;;;7.38;;
66112;SDS011;52893;52.870;5.822;2024-03-06T10:10:29;19.63;;;6.35;;
66112;SDS011;52893;52.870;5.822;2024-03-06T10:12:57;20.67;;;7.57;;
66112;SDS011;52893;52.870;5.822;2024-03-06T10:15:26;25.38;;;8.77;;
66112;SDS011;52893;52.870;5.822;2024-03-06T10:20:50;24.63;;;5.88;;
66112;SDS011;52893;52.870;5.822;2024-03-06T10:23:19;20.42;;;6.65;;
66112;SDS011;52893;52.870;5.822;2024-03-06T10:25:46;23.85;;;7.28;;
66112;SDS011;52893;52.870;5.822;2024-03-06T10:28:17;15.50;;;5.63;;
66112;SDS011;52893;52.870;5.822;2024-03-06T10:30:45;27.52;;;7.88;;
66112;SDS011;52893;52.870;5.822;2024-03-06T10:33:13;18.73;;;6.32;;
66112;SDS011;52893;52.870;5.822;2024-03-06T10:35:41;24.23;;;8.57;;
66112;SDS011;52893;52.870;5.822;2024-03-06T10:38:12;39.47;;;12.93;;
66112;SDS011;52893;52.870;5.822;2024-03-06T10:40:40;40.30;;;7.55;;
66112;SDS011;52893;52.870;5.822;2024-03-06T10:43:08;24.15;;;7.32;;
66112;SDS011;52893;52.870;5.822;2024-03-06T10:45:40;28.80;;;5.68;;
66112;SDS011;52893;52.870;5.822;2024-03-06T10:48:13;24.50;;;6.63;;
66112;SDS011;52893;52.870;5.822;2024-03-06T10:50:42;19.95;;;6.68;;
66112;SDS011;52893;52.870;5.822;2024-03-06T10:53:12;15.77;;;6.40;;
66112;SDS011;52893;52.870;5.822;2024-03-06T10:55:43;28.95;;;6.97;;
66112;SDS011;52893;52.870;5.822;2024-03-06T10:58:11;16.27;;;5.40;;
66112;SDS011;52893;52.870;5.822;2024-03-06T11:00:40;20.63;;;8.30;;
66112;SDS011;52893;52.870;5.822;2024-03-06T11:03:08;15.38;;;6.47;;
66112;SDS011;52893;52.870;5.822;2024-03-06T11:05:38;31.40;;;7.97;;
66112;SDS011;52893;52.870;5.822;2024-03-06T11:08:05;13.00;;;3.80;;
66112;SDS011;52893;52.870;5.822;2024-03-06T11:10:36;31.80;;;7.70;;
66112;SDS011;52893;52.870;5.822;2024-03-06T11:13:08;28.85;;;8.00;;
66112;SDS011;52893;52.870;5.822;2024-03-06T11:15:47;34.50;;;7.55;;
66112;SDS011;52893;52.870;5.822;2024-03-06T11:21:29;19.23;;;6.30;;
66112;SDS011;52893;52.870;5.822;2024-03-06T11:24:14;18.63;;;6.65;;
66112;SDS011;52893;52.870;5.822;2024-03-06T11:26:49;21.83;;;6.78;;
66112;SDS011;52893;52.870;5.822;2024-03-06T11:29:22;24.75;;;7.80;;
66112;SDS011;52893;52.870;5.822;2024-03-06T11:32:00;30.75;;;8.80;;
66112;SDS011;52893;52.870;5.822;2024-03-06T11:34:29;12.52;;;5.22;;
66112;SDS011;52893;52.870;5.822;2024-03-06T11:36:57;23.77;;;8.65;;
66112;SDS011;52893;52.870;5.822;2024-03-06T11:39:28;28.85;;;9.02;;
66112;SDS011;52893;52.870;5.822;2024-03-06T11:41:57;17.10;;;7.03;;
66112;SDS011;52893;52.870;5.822;2024-03-06T11:44:24;23.77;;;8.35;;
66112;SDS011;52893;52.870;5.822;2024-03-06T11:46:59;21.35;;;9.20;;
66112;SDS011;52893;52.870;5.822;2024-03-06T11:49:27;28.50;;;10.18;;
66112;SDS011;52893;52.870;5.822;2024-03-06T11:52:00;26.60;;;8.52;;
66112;SDS011;52893;52.870;5.822;2024-03-06T11:54:29;25.52;;;8.52;;
66112;SDS011;52893;52.870;5.822;2024-03-06T11:56:59;26.60;;;9.25;;
66112;SDS011;52893;52.870;5.822;2024-03-06T11:59:27;27.25;;;8.35;;
66112;SDS011;52893;52.870;5.822;2024-03-06T12:01:56;18.85;;;7.60;;
66112;SDS011;52893;52.870;5.822;2024-03-06T12:04:27;21.33;;;6.30;;
66112;SDS011;52893;52.870;5.822;2024-03-06T12:06:56;16.58;;;6.78;;
66112;SDS011;52893;52.870;5.822;2024-03-06T12:09:24;14.07;;;6.03;;
66112;SDS011;52893;52.870;5.822;2024-03-06T12:11:51;20.73;;;5.55;;
66112;SDS011;52893;52.870;5.822;2024-03-06T12:14:20;12.63;;;5.53;;
66112;SDS011;52893;52.870;5.822;2024-03-06T12:16:54;13.70;;;6.03;;
66112;SDS011;52893;52.870;5.822;2024-03-06T12:19:22;14.40;;;5.35;;
66112;SDS011;52893;52.870;5.822;2024-03-06T12:21:50;20.55;;;6.03;;
66112;SDS011;52893;52.870;5.822;2024-03-06T12:24:17;20.23;;;7.50;;
66112;SDS011;52893;52.870;5.822;2024-03-06T12:26:45;18.80;;;6.93;;
66112;SDS011;52893;52.870;5.822;2024-03-06T12:29:16;31.30;;;9.55;;
66112;SDS011;52893;52.870;5.822;2024-03-06T12:31:47;36.58;;;10.38;;
66112;SDS011;52893;52.870;5.822;2024-03-06T12:34:14;23.20;;;8.18;;
66112;SDS011;52893;52.870;5.822;2024-03-06T12:36:42;22.10;;;7.75;;
66112;SDS011;52893;52.870;5.822;2024-03-06T12:39:10;10.40;;;5.10;;
66112;SDS011;52893;52.870;5.822;2024-03-06T12:41:39;17.92;;;6.20;;
66112;SDS011;52893;52.870;5.822;2024-03-06T12:44:07;18.05;;;4.82;;
66112;SDS011;52893;52.870;5.822;2024-03-06T12:46:34;15.88;;;6.53;;
66112;SDS011;52893;52.870;5.822;2024-03-06T12:49:03;20.58;;;5.63;;
66112;SDS011;52893;52.870;5.822;2024-03-06T12:51:30;16.40;;;6.68;;
66112;SDS011;52893;52.870;5.822;2024-03-06T12:53:58;24.58;;;7.82;;
66112;SDS011;52893;52.870;5.822;2024-03-06T12:56:26;23.15;;;8.15;;
66112;SDS011;52893;52.870;5.822;2024-03-06T12:58:53;12.63;;;5.68;;
66112;SDS011;52893;52.870;5.822;2024-03-06T13:01:21;14.50;;;5.20;;
66112;SDS011;52893;52.870;5.822;2024-03-06T13:03:48;17.15;;;6.57;;
66112;SDS011;52893;52.870;5.822;2024-03-06T13:06:17;20.63;;;7.88;;
66112;SDS011;52893;52.870;5.822;2024-03-06T13:08:44;15.52;;;6.28;;
66112;SDS011;52893;52.870;5.822;2024-03-06T13:11:13;24.15;;;7.15;;
66112;SDS011;52893;52.870;5.822;2024-03-06T13:13:40;8.27;;;3.88;;
66112;SDS011;52893;52.870;5.822;2024-03-06T13:16:07;25.48;;;7.07;;
66112;SDS011;52893;52.870;5.822;2024-03-06T13:18:36;15.73;;;6.03;;
66112;SDS011;52893;52.870;5.822;2024-03-06T13:21:04;8.35;;;4.53;;
66112;SDS011;52893;52.870;5.822;2024-03-06T13:23:33;15.98;;;6.45;;
66112;SDS011;52893;52.870;5.822;2024-03-06T13:26:00;18.45;;;6.25;;
66112;SDS011;52893;52.870;5.822;2024-03-06T13:28:28;13.80;;;6.22;;
66112;SDS011;52893;52.870;5.822;2024-03-06T13:30:55;19.98;;;7.85;;
66112;SDS011;52893;52.870;5.822;2024-03-06T13:33:22;20.15;;;6.38;;
66112;SDS011;52893;52.870;5.822;2024-03-06T13:35:52;11.55;;;4.07;;
66112;SDS011;52893;52.870;5.822;2024-03-06T13:38:19;14.45;;;5.22;;
66112;SDS011;52893;52.870;5.822;2024-03-06T13:40:48;12.15;;;5.40;;
66112;SDS011;52893;52.870;5.822;2024-03-06T13:43:15;16.10;;;6.40;;
66112;SDS011;52893;52.870;5.822;2024-03-06T13:45:47;16.33;;;6.55;;
66112;SDS011;52893;52.870;5.822;2024-03-06T13:48:15;15.85;;;7.07;;
66112;SDS011;52893;52.870;5.822;2024-03-06T13:50:43;11.57;;;4.68;;
66112;SDS011;52893;52.870;5.822;2024-03-06T13:53:11;16.48;;;7.45;;
66112;SDS011;52893;52.870;5.822;2024-03-06T13:55:39;8.25;;;5.07;;
66112;SDS011;52893;52.870;5.822;2024-03-06T13:58:09;24.92;;;4.57;;
66112;SDS011;52893;52.870;5.822;2024-03-06T14:00:36;13.50;;;5.43;;
66112;SDS011;52893;52.870;5.822;2024-03-06T14:03:03;9.48;;;4.05;;
66112;SDS011;52893;52.870;5.822;2024-03-06T14:05:31;12.93;;;5.55;;
66112;SDS011;52893;52.870;5.822;2024-03-06T14:07:58;15.70;;;6.20;;
66112;SDS011;52893;52.870;5.822;2024-03-06T14:10:26;19.80;;;6.10;;
66112;SDS011;52893;52.870;5.822;2024-03-06T14:12:53;15.88;;;6.68;;
66112;SDS011;52893;52.870;5.822;2024-03-06T14:15:22;18.10;;;6.80;;
66112;SDS011;52893;52.870;5.822;2024-03-06T14:17:50;14.00;;;6.60;;
66112;SDS011;52893;52.870;5.822;2024-03-06T14:20:17;17.10;;;7.05;;
66112;SDS011;52893;52.870;5.822;2024-03-06T14:22:44;15.27;;;6.15;;
66112;SDS011;52893;52.870;5.822;2024-03-06T14:25:12;17.60;;;6.45;;
66112;SDS011;52893;52.870;5.822;2024-03-06T14:27:39;17.45;;;6.00;;
66112;SDS011;52893;52.870;5.822;2024-03-06T14:30:07;20.88;;;7.70;;
66112;SDS011;52893;52.870;5.822;2024-03-06T14:32:36;22.17;;;6.97;;
66112;SDS011;52893;52.870;5.822;2024-03-06T14:35:03;17.38;;;6.57;;
66112;SDS011;52893;52.870;5.822;2024-03-06T14:37:31;25.58;;;8.25;;
66112;SDS011;52893;52.870;5.822;2024-03-06T14:39:59;23.90;;;5.45;;
66112;SDS011;52893;52.870;5.822;2024-03-06T14:42:26;13.93;;;6.45;;
66112;SDS011;52893;52.870;5.822;2024-03-06T14:44:54;15.45;;;6.05;;
66112;SDS011;52893;52.870;5.822;2024-03-06T14:47:21;17.10;;;6.95;;
66112;SDS011;52893;52.870;5.822;2024-03-06T14:49:50;21.48;;;6.60;;